createdAt,value
2018-12-20T00:02:16.325Z,9.80
2018-12-20T00:04:45.618Z,7.60
2018-12-20T00:07:14.435Z,8.70
2018-12-20T00:09:43.219Z,7.80
2018-12-20T00:12:12.030Z,7.53
2018-12-20T00:14:40.841Z,8.80
2018-12-20T00:17:15.002Z,8.47
2018-12-20T00:19:43.773Z,8.10
2018-12-20T00:22:13.007Z,8.17
2018-12-20T00:24:41.780Z,7.87
2018-12-20T00:27:11.767Z,8.13
2018-12-20T00:29:40.767Z,9.10
2018-12-20T00:32:09.648Z,7.83
2018-12-20T00:34:38.376Z,7.93
2018-12-20T00:37:07.156Z,7.77
2018-12-20T00:39:35.925Z,8.90
2018-12-20T00:42:04.746Z,8.27
2018-12-20T00:44:37.342Z,8.13
2018-12-20T00:47:03.651Z,8.17
2018-12-20T00:49:32.327Z,8.97
2018-12-20T00:52:01.170Z,7.87
2018-12-20T00:54:30.011Z,8.43
2018-12-20T00:56:58.823Z,8.67
2018-12-20T00:59:27.518Z,8.20
2018-12-20T01:01:56.331Z,8.37
2018-12-20T01:04:25.148Z,7.83
2018-12-20T01:06:54.744Z,8.13
2018-12-20T01:09:23.602Z,7.57
2018-12-20T01:11:52.374Z,8.07
2018-12-20T01:14:21.158Z,8.03
2018-12-20T01:16:50.552Z,7.70
2018-12-20T01:19:20.231Z,7.63
2018-12-20T01:21:48.875Z,7.10
2018-12-20T01:24:17.663Z,8.10
2018-12-20T01:26:46.455Z,7.97
2018-12-20T01:29:15.342Z,7.50
2018-12-20T01:31:44.136Z,8.03
2018-12-20T01:34:12.871Z,7.80
2018-12-20T01:36:41.747Z,7.47
2018-12-20T01:39:10.486Z,8.20
2018-12-20T01:41:39.298Z,7.97
2018-12-20T01:44:08.058Z,7.63
2018-12-20T01:46:36.906Z,6.80
2018-12-20T01:49:05.659Z,6.63
2018-12-20T01:51:34.570Z,7.17
2018-12-20T01:54:03.527Z,7.50
2018-12-20T01:56:32.432Z,6.97
2018-12-20T01:59:01.155Z,7.00
2018-12-20T02:01:29.980Z,7.43
2018-12-20T02:03:58.805Z,6.73
2018-12-20T02:06:27.536Z,7.23
2018-12-20T02:08:56.913Z,6.40
2018-12-20T02:11:25.829Z,6.63
2018-12-20T02:13:54.493Z,7.03
2018-12-20T02:16:23.296Z,6.80
2018-12-20T02:18:53.380Z,7.10
2018-12-20T02:21:22.026Z,6.67
2018-12-20T02:23:51.040Z,6.43
2018-12-20T02:26:19.823Z,6.70
2018-12-20T02:28:49.026Z,6.90
2018-12-20T02:31:18.610Z,6.13
2018-12-20T02:33:47.386Z,6.37
2018-12-20T02:36:16.180Z,6.13
2018-12-20T02:38:44.987Z,5.47
2018-12-20T02:41:13.775Z,5.97
2018-12-20T02:43:42.830Z,5.07
2018-12-20T02:46:11.502Z,5.00
2018-12-20T02:48:40.265Z,5.37
2018-12-20T02:51:08.990Z,5.70
2018-12-20T02:53:37.752Z,5.80
2018-12-20T02:56:06.615Z,5.40
2018-12-20T02:58:35.403Z,5.13
2018-12-20T03:01:05.140Z,5.40
2018-12-20T03:03:34.702Z,5.23
2018-12-20T03:06:03.469Z,4.70
2018-12-20T03:08:32.434Z,4.97
2018-12-20T03:11:01.263Z,5.60
2018-12-20T03:13:30.198Z,5.30
2018-12-20T03:15:59.344Z,5.40
2018-12-20T03:18:28.103Z,5.10
2018-12-20T03:20:56.863Z,5.40
2018-12-20T03:23:25.647Z,4.90
2018-12-20T03:25:54.744Z,4.67
2018-12-20T03:28:24.043Z,6.20
2018-12-20T03:30:53.716Z,4.60
2018-12-20T03:33:22.313Z,5.40
2018-12-20T03:35:51.122Z,5.30
2018-12-20T03:38:19.902Z,5.07
2018-12-20T03:40:48.710Z,5.47
2018-12-20T03:43:17.492Z,5.20
2018-12-20T03:45:46.273Z,4.67
2018-12-20T03:48:15.214Z,4.60
2018-12-20T03:50:44.130Z,4.43
2018-12-20T03:53:12.752Z,4.97
2018-12-20T03:55:41.547Z,4.80
2018-12-20T03:58:10.538Z,4.70
2018-12-20T04:00:40.891Z,5.10
2018-12-20T04:03:09.856Z,4.70
2018-12-20T04:05:38.610Z,4.50
2018-12-20T04:08:07.485Z,4.77
2018-12-20T04:10:36.054Z,4.57
2018-12-20T04:13:04.855Z,5.17
2018-12-20T04:15:37.739Z,4.70
2018-12-20T04:18:02.635Z,4.00
2018-12-20T04:20:31.841Z,4.50
2018-12-20T04:23:00.631Z,4.83
2018-12-20T04:25:29.460Z,4.60
2018-12-20T04:27:58.190Z,4.80
2018-12-20T04:30:27.133Z,4.90
2018-12-20T04:32:56.299Z,4.87
2018-12-20T04:35:24.803Z,4.77
2018-12-20T04:37:54.131Z,5.13
2018-12-20T04:40:22.958Z,4.50
2018-12-20T04:42:51.766Z,4.30
2018-12-20T04:45:20.668Z,5.10
2018-12-20T04:47:50.229Z,4.93
2018-12-20T04:50:19.702Z,4.70
2018-12-20T04:52:48.485Z,5.47
2018-12-20T04:55:17.392Z,4.63
2018-12-20T04:57:47.579Z,4.90
2018-12-20T05:00:17.335Z,4.47
2018-12-20T05:02:46.091Z,4.73
2018-12-20T05:05:15.035Z,4.83
2018-12-20T05:07:43.819Z,4.80
2018-12-20T05:10:12.679Z,4.27
2018-12-20T05:12:41.347Z,5.47
2018-12-20T05:15:10.056Z,5.33
2018-12-20T05:17:38.811Z,5.37
2018-12-20T05:20:07.610Z,5.13
2018-12-20T05:22:36.505Z,4.90
2018-12-20T05:25:05.725Z,5.17
2018-12-20T05:27:34.324Z,5.20
2018-12-20T05:30:03.928Z,5.27
2018-12-20T05:32:32.661Z,6.87
2018-12-20T05:35:01.712Z,11.67
2018-12-20T05:37:30.311Z,7.20
2018-12-20T05:40:00.835Z,5.07
2018-12-20T05:42:29.528Z,5.60
2018-12-20T05:44:58.255Z,5.17
2018-12-20T05:47:27.566Z,5.37
2018-12-20T05:49:56.359Z,5.67
2018-12-20T05:52:25.185Z,5.03
2018-12-20T05:54:53.963Z,5.03
2018-12-20T05:57:22.804Z,5.37
2018-12-20T05:59:51.653Z,5.73
2018-12-20T06:02:20.439Z,5.60
2018-12-20T06:04:50.323Z,6.03
2018-12-20T06:07:19.267Z,5.87
2018-12-20T06:09:48.680Z,6.40
2018-12-20T06:12:17.581Z,6.10
2018-12-20T06:14:46.672Z,6.33
2018-12-20T06:17:15.443Z,6.00
2018-12-20T06:19:44.235Z,5.73
2018-12-20T06:22:14.021Z,5.17
2018-12-20T06:24:43.215Z,5.83
2018-12-20T06:27:12.002Z,6.27
2018-12-20T06:29:41.452Z,5.43
2018-12-20T06:32:10.253Z,5.93
2018-12-20T06:34:39.035Z,5.70
2018-12-20T06:37:08.336Z,6.07
2018-12-20T06:39:37.170Z,6.50
2018-12-20T06:42:06.530Z,7.00
2018-12-20T06:44:35.847Z,6.13
2018-12-20T06:47:05.105Z,6.97
2018-12-20T06:49:33.904Z,6.60
2018-12-20T06:52:02.794Z,6.20
2018-12-20T06:54:31.582Z,7.23
2018-12-20T06:57:00.368Z,6.83
2018-12-20T06:59:29.208Z,6.83
2018-12-20T07:01:59.174Z,7.10
2018-12-20T07:04:28.983Z,14.20
2018-12-20T07:06:57.813Z,17.03
2018-12-20T07:09:26.611Z,7.53
2018-12-20T07:11:55.404Z,7.30
2018-12-20T07:14:24.202Z,7.77
2018-12-20T07:16:52.996Z,7.43
2018-12-20T07:19:21.786Z,7.30
2018-12-20T07:21:51.539Z,6.87
2018-12-20T07:24:20.719Z,6.67
2018-12-20T07:26:49.487Z,6.93
2018-12-20T07:29:18.315Z,9.20
2018-12-20T07:31:47.098Z,10.30
2018-12-20T07:34:17.437Z,10.43
2018-12-20T07:36:46.283Z,7.83
2018-12-20T07:39:15.081Z,7.00
2018-12-20T07:41:43.975Z,6.73
2018-12-20T07:44:12.757Z,6.60
2018-12-20T07:46:41.559Z,7.00
2018-12-20T07:49:10.356Z,6.10
2018-12-20T07:51:39.221Z,7.20
2018-12-20T07:54:08.026Z,6.73
2018-12-20T07:56:36.803Z,6.87
2018-12-20T07:59:05.591Z,7.23
2018-12-20T08:01:34.379Z,7.40
2018-12-20T08:04:03.569Z,6.73
2018-12-20T08:06:32.047Z,7.80
2018-12-20T08:09:00.839Z,7.33
2018-12-20T08:11:29.654Z,8.33
2018-12-20T08:13:58.473Z,8.33
2018-12-20T08:16:28.694Z,7.20
2018-12-20T08:18:58.170Z,6.93
2018-12-20T08:21:26.943Z,7.17
2018-12-20T08:23:55.781Z,6.47
2018-12-20T08:26:24.612Z,7.47
2018-12-20T08:28:53.397Z,7.03
2018-12-20T08:31:22.182Z,6.97
2018-12-20T08:33:50.966Z,6.93
2018-12-20T08:36:19.742Z,6.67
2018-12-20T08:38:48.598Z,6.57
2018-12-20T08:41:17.395Z,6.20
2018-12-20T08:43:46.199Z,6.70
2018-12-20T08:46:14.991Z,6.43
2018-12-20T08:48:43.802Z,6.57
2018-12-20T08:51:12.580Z,6.13
2018-12-20T08:53:41.372Z,5.80
2018-12-20T08:56:10.164Z,5.53
2018-12-20T08:58:38.951Z,5.70
2018-12-20T09:01:07.762Z,6.23
2018-12-20T09:03:36.735Z,6.00
2018-12-20T09:06:05.599Z,6.00
2018-12-20T09:08:34.397Z,6.60
2018-12-20T09:11:03.179Z,6.17
2018-12-20T09:13:32.010Z,5.70
2018-12-20T09:16:00.799Z,5.80
2018-12-20T09:18:29.600Z,6.07
2018-12-20T09:20:58.387Z,4.93
2018-12-20T09:23:27.250Z,13.63
2018-12-20T09:25:56.055Z,6.47
2018-12-20T09:28:24.964Z,6.63
2018-12-20T09:30:53.802Z,6.40
2018-12-20T09:33:22.675Z,5.83
2018-12-20T09:35:51.475Z,4.67
2018-12-20T09:38:20.276Z,4.87
2018-12-20T09:40:49.062Z,5.00
2018-12-20T09:43:17.861Z,4.93
2018-12-20T09:45:46.639Z,5.10
2018-12-20T09:48:15.433Z,5.03
2018-12-20T09:50:44.220Z,4.70
2018-12-20T09:53:13.015Z,5.43
2018-12-20T09:55:41.813Z,4.53
2018-12-20T09:58:11.570Z,5.80
2018-12-20T10:00:40.342Z,5.27
2018-12-20T10:03:09.144Z,5.23
2018-12-20T10:05:37.936Z,5.00
2018-12-20T10:08:06.807Z,4.80
2018-12-20T10:10:35.651Z,5.27
2018-12-20T10:13:04.690Z,4.80
2018-12-20T10:15:37.140Z,5.23
2018-12-20T10:18:04.108Z,9.23
2018-12-20T10:20:32.897Z,5.40
2018-12-20T10:23:01.676Z,4.30
2018-12-20T10:25:31.011Z,4.27
2018-12-20T10:27:59.815Z,4.47
2018-12-20T10:30:28.608Z,4.37
2018-12-20T10:32:57.439Z,4.83
2018-12-20T10:35:26.225Z,4.83
2018-12-20T10:37:55.019Z,4.73
2018-12-20T10:40:23.826Z,4.80
2018-12-20T10:42:52.666Z,4.57
2018-12-20T10:45:21.463Z,4.03
2018-12-20T10:47:50.231Z,5.00
2018-12-20T10:50:19.055Z,5.80
2018-12-20T10:52:47.857Z,4.57
2018-12-20T10:55:16.654Z,4.40
2018-12-20T10:57:48.582Z,4.80
2018-12-20T11:00:17.367Z,5.43
2018-12-20T11:02:51.609Z,4.63
2018-12-20T11:05:23.481Z,4.83
2018-12-20T11:07:56.872Z,4.20
2018-12-20T11:10:27.866Z,4.73
2018-12-20T11:12:57.051Z,4.93
2018-12-20T11:15:25.867Z,5.47
2018-12-20T11:17:54.664Z,4.20
2018-12-20T11:20:24.336Z,5.03
2018-12-20T11:22:53.879Z,4.93
2018-12-20T11:25:22.738Z,4.80
2018-12-20T11:27:51.824Z,4.63
2018-12-20T11:30:20.603Z,4.27
2018-12-20T11:32:49.410Z,5.13
2018-12-20T11:35:18.213Z,4.33
2018-12-20T11:37:47.116Z,4.20
2018-12-20T11:40:15.967Z,4.20
2018-12-20T11:42:44.786Z,4.97
2018-12-20T11:45:13.593Z,4.27
2018-12-20T11:47:46.085Z,4.23
2018-12-20T11:50:11.178Z,3.73
2018-12-20T11:52:42.510Z,4.13
2018-12-20T11:55:09.635Z,4.47
2018-12-20T11:57:38.436Z,4.30
2018-12-20T12:00:09.450Z,4.17
2018-12-20T12:02:38.331Z,4.53
2018-12-20T12:05:07.103Z,3.70
2018-12-20T12:07:36.503Z,4.27
2018-12-20T12:10:06.340Z,3.90
2018-12-20T12:12:35.623Z,3.97
2018-12-20T12:15:04.710Z,3.60
2018-12-20T12:17:33.515Z,3.73
2018-12-20T12:20:02.314Z,4.50
2018-12-20T12:22:31.162Z,3.80
2018-12-20T12:25:00.507Z,4.03
2018-12-20T12:27:29.339Z,3.83
2018-12-20T12:29:59.351Z,3.93
2018-12-20T12:32:28.134Z,4.23
2018-12-20T12:34:56.935Z,4.23
2018-12-20T12:37:25.754Z,3.53
2018-12-20T12:39:56.840Z,4.20
2018-12-20T12:42:25.638Z,4.27
2018-12-20T12:44:54.433Z,4.03
2018-12-20T12:47:28.573Z,3.87
2018-12-20T12:49:57.368Z,3.97
2018-12-20T12:52:26.149Z,4.20
2018-12-20T12:54:54.935Z,4.10
2018-12-20T12:57:23.747Z,11.23
2018-12-20T12:59:52.632Z,10.37
2018-12-20T13:02:21.703Z,5.03
2018-12-20T13:04:50.509Z,4.20
2018-12-20T13:07:19.295Z,4.53
2018-12-20T13:09:48.094Z,4.17
2018-12-20T13:12:18.010Z,3.67
2018-12-20T13:14:47.838Z,4.63
2018-12-20T13:17:16.648Z,4.40
2018-12-20T13:19:45.473Z,4.23
2018-12-20T13:22:14.315Z,4.83
2018-12-20T13:24:43.583Z,4.53
2018-12-20T13:27:12.397Z,4.57
2018-12-20T13:29:41.184Z,3.63
2018-12-20T13:32:09.980Z,3.70
2018-12-20T13:34:38.832Z,4.00
2018-12-20T13:37:15.628Z,4.37
2018-12-20T13:39:36.595Z,4.07
2018-12-20T13:42:06.080Z,4.00
2018-12-20T13:44:34.918Z,4.17
2018-12-20T13:47:04.763Z,4.63
2018-12-20T13:49:33.628Z,4.40
2018-12-20T13:52:02.479Z,4.07
2018-12-20T13:54:31.339Z,3.50
2018-12-20T13:57:00.164Z,3.60
2018-12-20T13:59:28.947Z,3.93
2018-12-20T14:01:57.738Z,4.30
2018-12-20T14:04:26.647Z,4.30
2018-12-20T14:06:55.466Z,4.43
2018-12-20T14:09:24.272Z,3.80
2018-12-20T14:11:53.368Z,4.00
2018-12-20T14:14:23.903Z,3.50
2018-12-20T14:16:52.672Z,4.00
2018-12-20T14:19:22.066Z,4.70
2018-12-20T14:21:50.860Z,4.20
2018-12-20T14:24:22.443Z,4.07
2018-12-20T14:26:51.239Z,3.80
2018-12-20T14:29:20.833Z,4.30
2018-12-20T14:31:50.144Z,4.40
2018-12-20T14:34:20.036Z,3.43
2018-12-20T14:36:52.742Z,4.03
2018-12-20T14:39:21.557Z,11.13
2018-12-20T14:41:50.354Z,8.90
2018-12-20T14:44:19.136Z,4.40
2018-12-20T14:46:47.925Z,5.20
2018-12-20T14:49:16.799Z,4.37
2018-12-20T14:51:45.597Z,4.77
2018-12-20T14:54:14.665Z,4.87
2018-12-20T14:56:43.472Z,5.17
2018-12-20T14:59:13.895Z,4.93
2018-12-20T15:01:43.180Z,5.03
2018-12-20T15:04:11.988Z,4.90
2018-12-20T15:06:41.591Z,3.93
2018-12-20T15:09:10.367Z,4.60
2018-12-20T15:11:39.172Z,4.70
2018-12-20T15:14:07.959Z,5.40
2018-12-20T15:16:36.760Z,5.30
2018-12-20T15:19:05.556Z,4.83
2018-12-20T15:21:35.063Z,4.40
2018-12-20T15:24:04.869Z,4.40
2018-12-20T15:26:33.968Z,4.40
2018-12-20T15:29:02.764Z,3.93
2018-12-20T15:31:31.620Z,4.67
2018-12-20T15:34:00.415Z,4.20
2018-12-20T15:36:29.820Z,4.57
2018-12-20T15:38:59.417Z,4.60
2018-12-20T15:41:28.212Z,8.67
2018-12-20T15:43:57.046Z,8.73
2018-12-20T15:46:26.482Z,4.60
2018-12-20T15:48:59.405Z,4.70
2018-12-20T15:51:28.212Z,4.93
2018-12-20T15:53:57.026Z,4.17
2018-12-20T15:56:25.838Z,5.10
2018-12-20T15:58:54.619Z,4.43
2018-12-20T16:01:23.680Z,5.20
2018-12-20T16:03:55.078Z,5.13
2018-12-20T16:06:23.853Z,4.53
2018-12-20T16:08:52.655Z,5.47
2018-12-20T16:11:21.562Z,5.40
2018-12-20T16:13:57.053Z,5.80
2018-12-20T16:16:26.758Z,6.57
2018-12-20T16:18:55.755Z,6.77
2018-12-20T16:21:24.516Z,6.00
2018-12-20T16:23:53.352Z,6.30
2018-12-20T16:26:23.084Z,6.77
2018-12-20T16:28:51.884Z,6.60
2018-12-20T16:31:20.731Z,6.27
2018-12-20T16:33:49.522Z,6.23
2018-12-20T16:36:18.343Z,6.47
2018-12-20T16:38:47.991Z,5.83
2018-12-20T16:41:16.791Z,6.43
2018-12-20T16:43:45.596Z,5.73
2018-12-20T16:46:14.410Z,5.90
2018-12-20T16:48:43.205Z,5.70
2018-12-20T16:51:12.757Z,6.10
2018-12-20T16:53:42.105Z,6.73
2018-12-20T16:56:12.726Z,6.10
2018-12-20T16:58:41.503Z,6.17
2018-12-20T17:01:10.340Z,6.00
2018-12-20T17:03:39.154Z,6.80
2018-12-20T17:06:07.946Z,5.77
2018-12-20T17:08:36.742Z,6.40
2018-12-20T17:11:05.547Z,5.60
2018-12-20T17:13:34.462Z,6.43
2018-12-20T17:16:03.396Z,4.90
2018-12-20T17:18:32.256Z,5.97
2018-12-20T17:21:01.043Z,6.73
2018-12-20T17:23:35.687Z,8.33
2018-12-20T17:26:04.023Z,6.17
2018-12-20T17:28:32.833Z,6.00
2018-12-20T17:31:01.626Z,5.80
2018-12-20T17:33:30.663Z,5.70
2018-12-20T17:35:59.432Z,5.80
2018-12-20T17:38:28.280Z,5.77
2018-12-20T17:40:57.119Z,14.57
2018-12-20T17:43:25.932Z,8.33
2018-12-20T17:45:54.764Z,7.23
2018-12-20T17:48:28.990Z,7.40
2018-12-20T17:50:54.340Z,6.97
2018-12-20T17:53:24.367Z,6.57
2018-12-20T17:55:53.152Z,7.00
2018-12-20T17:58:22.627Z,6.87
2018-12-20T18:00:52.354Z,7.50
2018-12-20T18:03:24.432Z,6.63
2018-12-20T18:05:54.344Z,7.07
2018-12-20T18:08:23.155Z,6.80
2018-12-20T18:10:53.131Z,6.50
2018-12-20T18:13:21.940Z,6.20
2018-12-20T18:15:50.727Z,7.53
2018-12-20T18:18:20.973Z,6.67
2018-12-20T18:20:51.071Z,7.00
2018-12-20T18:23:20.474Z,6.73
2018-12-20T18:25:49.272Z,6.73
2018-12-20T18:28:18.087Z,6.70
2018-12-20T18:30:46.880Z,7.13
2018-12-20T18:33:15.678Z,11.17
2018-12-20T18:35:44.465Z,8.43
2018-12-20T18:38:13.348Z,7.93
2018-12-20T18:40:42.226Z,6.93
2018-12-20T18:43:10.980Z,8.37
2018-12-20T18:45:39.883Z,8.10
2018-12-20T18:48:08.660Z,6.97
2018-12-20T18:50:37.564Z,7.43
2018-12-20T18:53:06.350Z,7.27
2018-12-20T18:55:35.148Z,7.83
2018-12-20T18:58:03.939Z,7.07
2018-12-20T19:00:35.996Z,7.03
2018-12-20T19:03:03.161Z,8.83
2018-12-20T19:05:32.075Z,8.37
2018-12-20T19:08:00.862Z,7.80
2018-12-20T19:10:30.980Z,14.50
2018-12-20T19:13:00.171Z,17.90
2018-12-20T19:15:29.051Z,9.17
2018-12-20T19:17:57.840Z,8.97
2018-12-20T19:20:27.826Z,8.00
2018-12-20T19:22:56.622Z,8.53
2018-12-20T19:25:25.488Z,8.60
2018-12-20T19:27:54.952Z,9.20
2018-12-20T19:30:23.749Z,8.30
2018-12-20T19:32:52.540Z,7.10
2018-12-20T19:35:21.351Z,9.90
2018-12-20T19:37:50.155Z,7.37
2018-12-20T19:40:19.078Z,9.03
2018-12-20T19:42:48.567Z,7.87
2018-12-20T19:45:18.271Z,9.07
2018-12-20T19:47:47.944Z,8.40
2018-12-20T19:50:17.557Z,9.23
2018-12-20T19:52:47.070Z,10.13
2018-12-20T19:55:15.892Z,10.37
2018-12-20T19:57:44.846Z,10.07
2018-12-20T20:00:16.719Z,8.33
2018-12-20T20:02:45.511Z,9.13
2018-12-20T20:05:14.327Z,11.00
2018-12-20T20:07:43.127Z,13.20
2018-12-20T20:10:14.164Z,12.00
2018-12-20T20:12:42.988Z,12.80
2018-12-20T20:15:16.678Z,12.00
2018-12-20T20:17:43.349Z,12.00
2018-12-20T20:20:14.182Z,10.17
2018-12-20T20:22:41.703Z,9.20
2018-12-20T20:25:10.499Z,10.33
2018-12-20T20:27:39.300Z,10.83
2018-12-20T20:30:13.464Z,12.17
2018-12-20T20:32:40.397Z,10.50
2018-12-20T20:35:09.222Z,8.33
2018-12-20T20:37:38.013Z,8.17
2018-12-20T20:40:09.424Z,7.90
2018-12-20T20:42:38.215Z,7.50
2018-12-20T20:45:07.271Z,7.93
2018-12-20T20:47:36.073Z,7.70
2018-12-20T20:50:06.274Z,7.83
2018-12-20T20:52:35.083Z,6.57
2018-12-20T20:55:05.750Z,7.57
2018-12-20T20:57:34.124Z,6.73
2018-12-20T21:00:03.099Z,7.07
2018-12-20T21:02:31.976Z,6.53
2018-12-20T21:05:00.782Z,5.83
2018-12-20T21:07:29.564Z,6.77
2018-12-20T21:09:58.367Z,20.63
2018-12-20T21:12:27.156Z,10.40
2018-12-20T21:14:56.487Z,5.43
2018-12-20T21:17:25.270Z,6.23
2018-12-20T21:19:54.166Z,5.70
2018-12-20T21:22:23.011Z,6.03
2018-12-20T21:24:51.803Z,5.00
2018-12-20T21:27:20.595Z,5.80
2018-12-20T21:29:49.408Z,4.93
2018-12-20T21:32:18.241Z,5.30
2018-12-20T21:34:47.998Z,5.57
2018-12-20T21:37:20.959Z,4.90
2018-12-20T21:39:49.753Z,4.90
2018-12-20T21:42:18.552Z,5.37
2018-12-20T21:44:47.355Z,4.43
2018-12-20T21:47:17.336Z,5.57
2018-12-20T21:49:46.090Z,6.20
2018-12-20T21:52:14.919Z,5.13
2018-12-20T21:54:43.735Z,4.90
2018-12-20T21:57:13.035Z,4.50
2018-12-20T21:59:42.398Z,5.27
2018-12-20T22:02:11.185Z,4.63
2018-12-20T22:04:40.039Z,4.60
2018-12-20T22:07:09.499Z,4.93
2018-12-20T22:09:38.287Z,5.80
2018-12-20T22:12:07.071Z,6.43
2018-12-20T22:14:35.880Z,5.83
2018-12-20T22:17:04.648Z,6.80
2018-12-20T22:19:33.452Z,6.63
2018-12-20T22:22:02.262Z,6.10
2018-12-20T22:24:32.181Z,6.27
2018-12-20T22:27:00.962Z,6.07
2018-12-20T22:29:30.800Z,6.57
2018-12-20T22:32:00.636Z,6.73
2018-12-20T22:34:29.429Z,7.83
2018-12-20T22:36:58.249Z,6.33
2018-12-20T22:39:27.031Z,7.07
2018-12-20T22:41:55.838Z,6.53
2018-12-20T22:44:24.624Z,7.00
2018-12-20T22:46:53.416Z,6.37
2018-12-20T22:49:22.212Z,7.00
2018-12-20T22:51:50.996Z,7.43
2018-12-20T22:54:21.603Z,7.07
2018-12-20T22:56:51.219Z,6.53
2018-12-20T22:59:20.627Z,6.67
2018-12-20T23:01:49.430Z,7.33
2018-12-20T23:04:18.251Z,8.23
2018-12-20T23:06:47.991Z,6.57
2018-12-20T23:09:16.853Z,7.30
2018-12-20T23:11:46.601Z,7.70
2018-12-20T23:14:15.376Z,6.97
2018-12-20T23:16:44.166Z,7.13
2018-12-20T23:19:13.071Z,7.03
2018-12-20T23:21:42.035Z,7.03
2018-12-20T23:24:10.927Z,6.80
2018-12-20T23:26:39.725Z,6.30
2018-12-20T23:29:08.555Z,6.53
2018-12-20T23:31:38.003Z,6.13
2018-12-20T23:34:06.820Z,5.90
2018-12-20T23:36:35.610Z,6.20
2018-12-20T23:39:05.856Z,5.10
2018-12-20T23:41:35.909Z,4.13
2018-12-20T23:44:04.699Z,5.57
2018-12-20T23:46:33.491Z,5.43
2018-12-20T23:49:03.199Z,6.00
2018-12-20T23:51:32.252Z,7.70
2018-12-20T23:54:01.053Z,8.67
2018-12-20T23:56:29.889Z,5.37
2018-12-20T23:58:58.679Z,4.53
